Time;durP1;ratioP1;P1;durP2;ratioP2;P2;SDS_P1;SDS_P2;PMS_P1;PMS_P2;Temp;Humidity;BMP_temperature;BMP_pressure;BME280_temperature;BME280_humidity;BME280_pressure;Samples;Min_cycle;Max_cycle;Signal;HPM_P1;HPM_P2
2022/06/06 00:01:38;;;;;;;12.07;11.27;;;;;;;19.60;53.08;100202.59;4925636;28;100928;-90
2022/06/06 00:04:03;;;;;;;12.50;11.57;;;;;;;19.76;52.79;100199.69;4962426;28;97892;-89
2022/06/06 00:06:29;;;;;;;12.57;11.20;;;;;;;19.49;53.08;100177.72;4942316;28;97523;-91
2022/06/06 00:08:55;;;;;;;11.75;10.52;;;;;;;19.53;53.15;100192.53;4928214;28;97002;-90
2022/06/06 00:11:20;;;;;;;13.57;12.30;;;;;;;19.43;53.57;100201.19;4958414;28;97941;-85
2022/06/06 00:13:46;;;;;;;12.43;11.52;;;;;;;19.43;53.56;100195.00;4948081;28;101166;-91
2022/06/06 00:16:12;;;;;;;12.45;11.48;;;;;;;19.44;53.59;100186.91;4939321;28;96929;-90
2022/06/06 00:18:38;;;;;;;12.60;11.57;;;;;;;19.44;53.47;100178.09;4932028;28;97223;-88
2022/06/06 00:21:06;;;;;;;12.15;11.15;;;;;;;19.41;53.61;100183.63;4943079;28;98121;-90
2022/06/06 00:23:31;;;;;;;12.77;11.88;;;;;;;19.37;53.56;100172.38;4920775;28;99776;-89
2022/06/06 00:25:57;;;;;;;12.25;11.25;;;;;;;19.26;53.19;100142.16;4944166;28;97222;-91
2022/06/06 00:28:23;;;;;;;12.80;11.93;;;;;;;19.28;53.77;100164.19;4957248;28;96998;-87
2022/06/06 00:30:48;;;;;;;13.00;11.85;;;;;;;19.27;53.94;100160.69;4940192;28;99103;-90
2022/06/06 00:35:59;;;;;;;13.48;12.48;;;;;;;19.09;54.34;100116.78;4960031;28;97163;-89
2022/06/06 00:38:25;;;;;;;12.35;11.45;;;;;;;19.17;54.06;100125.91;4923024;28;97142;-90
2022/06/06 00:40:50;;;;;;;12.65;11.32;;;;;;;19.13;54.01;100119.09;4927026;28;99972;-91
2022/06/06 00:43:18;;;;;;;12.18;11.38;;;;;;;19.18;53.70;100114.31;4934697;28;99670;-90
2022/06/06 00:45:45;;;;;;;11.77;10.77;;;;;;;19.19;53.73;100104.50;4926063;28;96826;-91
2022/06/06 00:48:22;;;;;;;12.48;11.18;;;;;;;19.12;53.84;100116.56;4935511;28;97250;-91
2022/06/06 00:50:58;;;;;;;12.40;11.50;;;;;;;19.12;53.69;100101.44;4922525;28;101883;-88
2022/06/06 00:53:59;;;;;;;11.63;10.73;;;;;;;19.06;53.25;100093.06;4949772;28;101884;-90
2022/06/06 00:56:30;;;;;;;12.40;11.30;;;;;;;19.08;53.43;100091.13;4855784;28;97588;-87
2022/06/06 00:59:00;;;;;;;12.15;11.13;;;;;;;19.02;53.50;100096.91;4939472;28;96898;-92
2022/06/06 01:01:26;;;;;;;12.15;11.23;;;;;;;18.94;53.56;100084.19;4926154;28;101221;-90
2022/06/06 01:03:55;;;;;;;11.57;10.77;;;;;;;19.00;54.13;100105.00;4931850;28;98173;-90
2022/06/06 01:06:22;;;;;;;11.98;10.98;;;;;;;19.04;53.47;100108.28;4924630;28;97016;-85
2022/06/06 01:08:48;;;;;;;12.02;11.23;;;;;;;19.11;53.31;100120.16;4937275;28;96710;-88
2022/06/06 01:11:14;;;;;;;12.02;10.82;;;;;;;19.09;53.11;100124.78;4935952;28;98276;-88
2022/06/06 01:13:41;;;;;;;12.52;11.50;;;;;;;18.88;53.87;100125.38;4933191;28;99949;-88
2022/06/06 01:16:09;;;;;;;11.68;10.77;;;;;;;18.80;54.16;100133.03;4936699;28;96684;-90
2022/06/06 01:19:16;;;;;;;12.63;11.70;;;;;;;18.73;54.31;100124.66;4980146;28;97016;-90
2022/06/06 01:22:09;;;;;;;12.45;11.55;;;;;;;18.94;53.88;100135.56;4963065;28;100112;-91
2022/06/06 01:24:46;;;;;;;11.63;10.55;;;;;;;18.72;54.29;100128.22;4937055;28;99855;-87
2022/06/06 01:27:25;;;;;;;13.23;12.23;;;;;;;18.67;54.30;100126.84;4972368;28;96955;-92
2022/06/06 01:29:56;;;;;;;12.40;11.50;;;;;;;18.81;53.96;100120.59;4937729;28;97522;-89
2022/06/06 01:32:23;;;;;;;11.93;11.00;;;;;;;18.74;53.69;100109.53;4926907;28;100983;-84
2022/06/06 01:34:50;;;;;;;12.88;11.70;;;;;;;18.64;54.13;100097.81;4927911;28;101411;-89
2022/06/06 01:37:28;;;;;;;12.27;11.27;;;;;;;18.65;53.78;100104.84;4939242;28;97142;-90
2022/06/06 01:39:55;;;;;;;12.65;11.65;;;;;;;18.39;54.27;100088.09;4945457;28;96852;-91
2022/06/06 01:42:34;;;;;;;12.60;11.60;;;;;;;18.36;54.33;100077.69;4934538;28;101518;-89
2022/06/06 01:45:08;;;;;;;11.73;10.93;;;;;;;18.39;54.38;100091.59;4922322;28;99825;-91
2022/06/06 01:47:48;;;;;;;12.18;11.27;;;;;;;18.43;54.00;100090.41;4956715;28;97236;-90
2022/06/06 01:50:14;;;;;;;12.25;11.32;;;;;;;18.48;53.78;100093.59;4944591;28;96821;-91
2022/06/06 01:52:51;;;;;;;12.50;10.70;;;;;;;18.33;54.25;100086.72;4923459;28;100160;-91
2022/06/06 01:55:16;;;;;;;11.38;10.57;;;;;;;18.30;54.21;100068.31;4942975;28;99913;-90
2022/06/06 01:57:43;;;;;;;11.80;10.85;;;;;;;18.40;53.75;100057.88;4927203;28;96796;-90
2022/06/06 02:00:08;;;;;;;12.75;11.65;;;;;;;18.39;53.73;100058.84;4965611;28;97169;-91
2022/06/06 02:02:34;;;;;;;11.93;11.00;;;;;;;18.36;54.16;100061.72;4926149;28;99745;-90
2022/06/06 02:05:00;;;;;;;12.05;11.15;;;;;;;18.37;54.01;100063.41;4934706;28;97945;-89
2022/06/06 02:07:26;;;;;;;11.70;10.70;;;;;;;18.43;53.96;100069.16;4937711;28;97240;-84
2022/06/06 02:09:51;;;;;;;12.38;11.48;;;;;;;18.61;53.48;100068.78;4939247;28;97201;-90
2022/06/06 02:12:19;;;;;;;11.88;11.07;;;;;;;18.36;54.31;100081.19;4940801;28;101171;-92
2022/06/06 02:14:47;;;;;;;12.20;11.00;;;;;;;18.23;54.34;100075.00;4917983;28;101483;-90
2022/06/06 02:17:12;;;;;;;12.55;10.98;;;;;;;18.18;54.21;100067.38;4947809;28;96741;-91
2022/06/06 02:19:38;;;;;;;11.77;10.77;;;;;;;18.29;54.11;100078.06;4959788;28;97165;-90
2022/06/06 02:22:04;;;;;;;13.73;11.13;;;;;;;18.32;53.87;100077.03;4942821;28;98399;-91
2022/06/06 02:24:29;;;;;;;12.38;11.55;;;;;;;18.17;54.27;100049.72;4953415;28;97849;-90
2022/06/06 02:26:55;;;;;;;13.20;12.10;;;;;;;18.36;53.88;100083.00;4955346;28;97026;-90
2022/06/06 02:29:21;;;;;;;12.05;11.15;;;;;;;18.39;54.02;100082.78;4928136;28;97802;-90
2022/06/06 02:31:46;;;;;;;12.43;11.43;;;;;;;18.39;54.11;100077.47;4934523;28;100327;-90
2022/06/06 02:34:12;;;;;;;12.02;10.93;;;;;;;18.30;53.68;100055.03;4941705;28;99821;-90
2022/06/06 02:36:38;;;;;;;10.93;10.02;;;;;;;18.33;53.54;100053.00;4934115;28;97539;-89
2022/06/06 02:39:04;;;;;;;11.70;10.60;;;;;;;18.35;53.74;100052.88;4945732;28;96975;-88
2022/06/06 02:41:30;;;;;;;12.68;11.60;;;;;;;18.50;53.65;100066.91;4925777;28;101849;-89
2022/06/06 02:43:56;;;;;;;12.60;11.60;;;;;;;18.42;53.49;100072.78;4944479;28;97830;-89
2022/06/06 02:46:22;;;;;;;11.95;11.15;;;;;;;18.37;53.52;100074.06;4950956;28;97508;-90
2022/06/06 02:48:48;;;;;;;13.00;11.80;;;;;;;18.27;54.00;100082.66;4945909;28;97617;-90
2022/06/06 02:51:13;;;;;;;13.40;11.98;;;;;;;18.29;53.75;100071.91;4935399;28;101120;-89
2022/06/06 02:53:39;;;;;;;12.75;11.77;;;;;;;18.25;53.79;100075.75;4950587;28;96906;-90
2022/06/06 02:56:05;;;;;;;13.02;11.93;;;;;;;18.12;53.97;100053.66;4950057;28;96803;-90
2022/06/06 02:58:30;;;;;;;12.18;11.18;;;;;;;18.16;54.14;100069.28;4946806;28;97044;-90
2022/06/06 03:00:59;;;;;;;12.85;11.77;;;;;;;18.10;54.17;100053.78;4961001;28;97428;-88
2022/06/06 03:03:26;;;;;;;12.27;11.20;;;;;;;18.32;53.66;100080.56;4950339;28;98122;-86
2022/06/06 03:06:04;;;;;;;12.50;11.40;;;;;;;18.27;53.80;100080.00;4951819;28;97551;-90
2022/06/06 03:08:30;;;;;;;13.73;12.48;;;;;;;18.21;53.99;100087.53;4953760;28;97015;-89
2022/06/06 03:11:26;;;;;;;13.23;12.15;;;;;;;18.17;54.15;100081.59;4971495;28;101434;-88
2022/06/06 03:14:32;;;;;;;13.38;12.27;;;;;;;18.23;54.10;100094.44;4923849;28;101759;-91
2022/06/06 03:23:39;;;;;;;14.52;12.80;;;;;;;18.24;53.76;100092.66;4964813;28;101113;-89
2022/06/06 03:26:31;;;;;;;12.63;11.63;;;;;;;18.35;53.48;100092.75;4972609;28;98634;-90
2022/06/06 03:29:06;;;;;;;13.13;12.13;;;;;;;18.28;53.65;100087.00;4970537;28;97144;-90
2022/06/06 03:31:46;;;;;;;14.57;12.00;;;;;;;18.33;53.68;100092.88;4938600;28;96955;-88
2022/06/06 03:34:27;;;;;;;13.77;12.68;;;;;;;18.36;53.52;100105.09;4944134;28;101087;-91
2022/06/06 03:36:59;;;;;;;13.93;12.60;;;;;;;18.28;53.77;100097.66;4940176;28;100109;-90
2022/06/06 03:39:30;;;;;;;14.05;12.70;;;;;;;18.32;53.82;100101.81;4941522;28;96904;-90
2022/06/06 03:42:01;;;;;;;13.77;12.38;;;;;;;18.39;53.58;100096.06;4954801;28;97190;-90
2022/06/06 03:44:53;;;;;;;13.20;12.20;;;;;;;18.33;53.88;100086.72;4932056;28;101104;-85
2022/06/06 03:47:22;;;;;;;;;;;;;;;18.39;53.73;100080.13;4938383;28;98449;-90
2022/06/06 03:49:59;;;;;;;14.40;13.20;;;;;;;18.53;53.44;100088.81;4956290;28;98347;-90
2022/06/06 03:52:40;;;;;;;14.20;12.98;;;;;;;18.31;54.02;100089.47;4966379;28;97232;-89
2022/06/06 03:55:32;;;;;;;14.10;12.77;;;;;;;18.49;53.84;100103.25;4963520;28;97341;-90
2022/06/06 03:58:00;;;;;;;15.15;13.85;;;;;;;18.32;54.22;100092.97;4925291;28;101294;-90
2022/06/06 04:00:26;;;;;;;13.25;12.15;;;;;;;18.36;53.97;100083.84;4941726;28;97194;-88
2022/06/06 04:02:55;;;;;;;14.63;13.13;;;;;;;18.42;54.14;100091.38;4946088;28;96962;-89
2022/06/06 04:05:22;;;;;;;14.65;13.43;;;;;;;18.35;54.14;100071.50;4929941;28;99991;-90
2022/06/06 04:07:48;;;;;;;14.48;12.82;;;;;;;18.75;53.71;100097.94;4927245;28;97645;-88
2022/06/06 04:10:14;;;;;;;14.93;13.52;;;;;;;18.76;53.64;100075.69;4939344;28;97139;-89
2022/06/06 04:12:53;;;;;;;15.20;13.80;;;;;;;18.91;53.37;100081.75;4938055;28;96840;-91
2022/06/06 04:15:22;;;;;;;15.32;13.68;;;;;;;19.15;52.87;100084.41;4928196;28;100145;-88
2022/06/06 04:17:47;;;;;;;15.82;14.43;;;;;;;18.97;52.96;100071.50;4987253;28;97959;-88
2022/06/06 04:20:42;;;;;;;15.38;13.98;;;;;;;19.14;52.68;100080.91;4958994;28;96597;-88
2022/06/06 04:23:31;;;;;;;14.98;13.50;;;;;;;19.28;52.38;100079.88;4921699;28;98143;-86
2022/06/06 04:26:21;;;;;;;15.45;14.25;;;;;;;19.41;51.80;100087.81;4937624;28;99893;-87
2022/06/06 04:29:05;;;;;;;16.30;14.98;;;;;;;19.35;52.08;100089.13;4961229;28;99979;-88
2022/06/06 04:31:31;;;;;;;15.45;13.98;;;;;;;19.34;52.53;100092.72;4963341;28;96778;-86
2022/06/06 04:34:14;;;;;;;15.68;14.27;;;;;;;19.03;52.38;100062.22;4947195;28;97412;-89
2022/06/06 04:36:53;;;;;;;14.55;13.25;;;;;;;19.20;52.85;100093.75;4944052;28;101133;-91
2022/06/06 04:39:34;;;;;;;15.43;14.20;;;;;;;19.34;52.96;100086.56;4932615;28;101569;-89
2022/06/06 04:42:20;;;;;;;14.88;13.45;;;;;;;19.34;52.47;100079.41;4959686;28;97251;-90
2022/06/06 04:45:06;;;;;;;15.05;13.73;;;;;;;19.26;52.51;100081.81;4951783;28;97366;-88
2022/06/06 04:47:38;;;;;;;15.38;14.18;;;;;;;19.37;52.35;100084.53;4956987;28;98261;-90
2022/06/06 04:50:15;;;;;;;15.88;14.20;;;;;;;19.37;52.44;100073.91;4923633;28;101454;-90
2022/06/06 04:52:45;;;;;;;14.55;13.35;;;;;;;19.51;52.90;100090.63;4941438;28;97111;-92
2022/06/06 04:55:11;;;;;;;15.32;14.00;;;;;;;19.75;52.68;100087.94;4944683;28;97241;-94
2022/06/06 04:57:41;;;;;;;15.82;14.55;;;;;;;19.72;52.17;100074.88;4957955;28;97597;-90
2022/06/06 05:00:08;;;;;;;14.52;13.48;;;;;;;19.84;52.36;100066.81;4932449;28;100457;-93
2022/06/06 05:02:35;;;;;;;16.05;14.60;;;;;;;19.91;51.74;100077.84;4930014;28;98065;-88
2022/06/06 05:05:00;;;;;;;15.60;14.30;;;;;;;20.00;51.73;100077.13;4946270;28;97022;-88
2022/06/06 05:07:56;;;;;;;17.90;14.70;;;;;;;19.99;51.35;100075.44;4951902;28;100172;-88
2022/06/06 05:10:33;;;;;;;15.93;14.73;;;;;;;20.17;51.48;100082.97;4949496;28;100082;-90
2022/06/06 05:13:24;;;;;;;16.23;14.73;;;;;;;20.34;51.11;100086.00;4961347;28;97433;-88
2022/06/06 05:16:31;;;;;;;15.85;14.55;;;;;;;20.54;50.32;100087.16;4950605;28;97016;-85
2022/06/06 05:19:15;;;;;;;15.73;14.10;;;;;;;20.50;50.50;100090.13;4916093;28;100783;-89
2022/06/06 05:21:47;;;;;;;18.35;15.07;;;;;;;20.54;50.77;100091.63;4956442;28;101162;-84
2022/06/06 05:24:24;;;;;;;15.10;13.75;;;;;;;20.70;50.26;100093.91;4971818;28;96876;-92
2022/06/06 05:27:05;;;;;;;16.10;14.88;;;;;;;20.76;50.17;100066.75;4936279;28;97357;-91
2022/06/06 05:30:00;;;;;;;16.15;14.50;;;;;;;21.25;49.19;100089.44;4958165;28;98197;-84
2022/06/06 05:32:35;;;;;;;15.93;14.57;;;;;;;21.06;49.49;100074.09;4939570;28;100173;-89
2022/06/06 05:35:12;;;;;;;15.15;14.05;;;;;;;21.16;49.13;100076.84;4961279;28;97370;-86
2022/06/06 05:37:50;;;;;;;15.20;13.90;;;;;;;21.34;49.11;100075.31;4952299;28;96883;-86
2022/06/06 05:40:32;;;;;;;15.45;13.88;;;;;;;21.57;48.91;100054.75;4961390;28;97925;-90
2022/06/06 05:43:28;;;;;;;14.85;12.85;;;;;;;22.08;47.52;100078.03;4937269;28;100477;-89
2022/06/06 05:46:32;;;;;;;15.45;13.80;;;;;;;22.54;46.74;100079.41;4927061;28;97956;-88
2022/06/06 05:49:00;;;;;;;14.63;13.45;;;;;;;23.01;46.11;100087.75;4970559;28;97121;-91
2022/06/06 05:51:47;;;;;;;15.93;14.48;;;;;;;23.66;45.06;100090.75;4957717;28;97903;-91
2022/06/06 05:54:27;;;;;;;16.73;14.18;;;;;;;23.91;44.46;100085.78;4935462;28;101122;-88
2022/06/06 05:57:11;;;;;;;14.70;13.50;;;;;;;23.13;45.67;100093.81;4949859;28;98168;-91
2022/06/06 06:00:16;;;;;;;15.60;14.25;;;;;;;23.05;46.27;100101.69;4954554;28;96953;-89
2022/06/06 06:03:25;;;;;;;16.33;14.40;;;;;;;23.08;46.40;100093.38;4935922;28;100430;-93
2022/06/06 06:06:03;;;;;;;15.25;13.68;;;;;;;23.16;46.35;100090.03;4945839;28;102044;-92
2022/06/06 06:08:42;;;;;;;16.20;14.05;;;;;;;23.78;45.08;100104.03;4950874;28;97359;-90
2022/06/06 06:11:29;;;;;;;15.18;13.85;;;;;;;24.22;44.38;100099.00;4938096;28;98010;-88
2022/06/06 06:14:21;;;;;;;15.68;14.27;;;;;;;23.72;45.49;100097.41;4950644;28;101724;-92
2022/06/06 06:16:49;;;;;;;16.15;14.70;;;;;;;23.98;44.88;100086.09;4928586;28;98887;-90
2022/06/06 06:19:18;;;;;;;15.35;14.02;;;;;;;25.26;43.38;100108.59;4940583;28;97288;-91
2022/06/06 06:21:47;;;;;;;15.35;14.02;;;;;;;25.32;43.22;100100.94;4917632;28;97783;-89
2022/06/06 06:24:19;;;;;;;17.52;14.32;;;;;;;24.90;43.87;100101.44;4939018;28;100885;-93
2022/06/06 06:26:46;;;;;;;16.60;15.23;;;;;;;24.48;44.56;100101.91;4930008;28;101660;-89
2022/06/06 06:29:12;;;;;;;16.42;15.15;;;;;;;23.84;46.56;100106.13;4943226;28;96824;-89
2022/06/06 06:32:02;;;;;;;15.60;14.15;;;;;;;23.69;46.96;100089.63;4939361;28;97011;-89
2022/06/06 06:34:28;;;;;;;16.47;14.83;;;;;;;24.15;46.77;100113.00;4920380;28;101446;-92
2022/06/06 06:37:15;;;;;;;14.25;13.25;;;;;;;24.79;45.44;100123.97;4935150;28;101929;-91
2022/06/06 06:40:02;;;;;;;14.32;13.23;;;;;;;25.02;44.85;100117.19;4925365;28;97338;-91
2022/06/06 06:42:37;;;;;;;15.82;14.32;;;;;;;25.11;45.11;100104.72;4948589;28;97173;-90
2022/06/06 06:45:16;;;;;;;16.42;14.98;;;;;;;26.95;41.69;100115.53;4966205;28;97283;-86
2022/06/06 06:47:50;;;;;;;15.00;13.80;;;;;;;27.48;41.20;100108.94;4935989;28;100557;-88
2022/06/06 06:50:27;;;;;;;15.70;14.40;;;;;;;27.06;41.58;100106.31;4931836;28;98521;-84
2022/06/06 06:53:01;;;;;;;15.85;14.65;;;;;;;27.07;41.94;100114.22;4940178;28;97251;-85
2022/06/06 06:55:32;;;;;;;15.60;14.50;;;;;;;27.73;40.78;100108.97;4936778;28;101246;-85
2022/06/06 06:58:03;;;;;;;14.65;13.38;;;;;;;27.56;41.19;100113.50;4922405;28;102325;-85
2022/06/06 07:00:38;;;;;;;14.45;13.35;;;;;;;27.95;40.63;100115.56;4945436;28;97417;-85
2022/06/06 07:09:22;;;;;;;14.52;13.27;;;;;;;28.00;39.93;100110.50;4944805;28;101840;-84
2022/06/06 07:12:20;;;;;;;14.20;13.13;;;;;;;27.88;39.79;100122.66;4921917;28;97310;-83
2022/06/06 07:15:16;;;;;;;15.10;14.00;;;;;;;27.35;40.67;100124.78;4938682;28;96795;-85
2022/06/06 07:18:00;;;;;;;14.40;13.10;;;;;;;26.52;42.34;100103.06;4933228;28;100597;-83
2022/06/06 07:20:27;;;;;;;13.73;12.73;;;;;;;26.36;43.11;100117.25;4969580;28;98059;-83
2022/06/06 07:22:59;;;;;;;14.32;13.13;;;;;;;26.27;43.79;100124.44;4931894;28;97046;-83
2022/06/06 07:25:32;;;;;;;15.05;13.85;;;;;;;26.41;43.93;100118.47;4953855;28;97091;-83
2022/06/06 07:27:58;;;;;;;14.13;13.13;;;;;;;27.25;42.18;100114.13;4926042;28;99323;-85
2022/06/06 07:30:24;;;;;;;14.13;12.85;;;;;;;27.54;41.65;100140.63;4940881;28;101883;-84
2022/06/06 07:33:21;;;;;;;13.35;12.45;;;;;;;27.25;41.94;100146.44;4947010;28;97215;-84
2022/06/06 07:36:13;;;;;;;13.90;12.80;;;;;;;27.08;42.53;100144.69;4953342;28;96834;-84
2022/06/06 07:38:48;;;;;;;13.27;12.27;;;;;;;26.79;42.93;100119.03;4945874;28;101626;-84
2022/06/06 07:41:34;;;;;;;14.05;12.90;;;;;;;26.88;43.32;100146.81;4943911;28;97147;-83
2022/06/06 07:44:12;;;;;;;13.70;12.68;;;;;;;26.37;43.98;100129.69;4944296;28;97359;-85
2022/06/06 07:46:52;;;;;;;15.13;13.65;;;;;;;26.12;45.53;100136.75;4920918;28;97616;-81
2022/06/06 07:49:23;;;;;;;13.80;12.80;;;;;;;25.83;45.87;100129.81;4948061;28;101505;-81
2022/06/06 07:51:58;;;;;;;13.82;12.93;;;;;;;25.78;46.33;100150.06;4932902;28;98077;-79
2022/06/06 07:54:42;;;;;;;14.32;13.32;;;;;;;25.51;47.23;100139.25;4944584;28;96840;-78
2022/06/06 07:57:17;;;;;;;13.63;12.57;;;;;;;25.45;47.52;100139.84;4947616;28;97803;-79
2022/06/06 07:59:52;;;;;;;14.60;13.50;;;;;;;25.32;47.80;100143.91;4959984;28;97598;-79
2022/06/06 08:02:48;;;;;;;14.52;13.10;;;;;;;25.30;47.86;100149.41;4926402;28;101729;-77
2022/06/06 08:05:44;;;;;;;14.35;13.00;;;;;;;25.13;48.57;100147.50;4947509;28;97218;-89
2022/06/06 08:09:08;;;;;;;13.88;12.60;;;;;;;25.11;48.86;100146.84;4932816;28;97195;-81
2022/06/06 08:11:42;;;;;;;14.55;13.35;;;;;;;25.12;48.64;100143.13;4875047;28;101139;-80
2022/06/06 08:14:14;;;;;;;13.23;12.32;;;;;;;25.12;49.03;100160.09;4922169;28;101361;-81
2022/06/06 08:16:44;;;;;;;13.52;12.52;;;;;;;24.93;49.45;100166.44;4951936;28;97205;-83
2022/06/06 08:19:45;;;;;;;15.30;12.52;;;;;;;25.04;48.89;100160.84;4942242;28;96948;-81
2022/06/06 08:22:11;;;;;;;13.65;12.65;;;;;;;25.06;48.81;100168.75;4905843;28;102191;-81
2022/06/06 08:24:42;;;;;;;13.80;12.73;;;;;;;25.05;48.58;100154.47;4923698;28;101045;-83
2022/06/06 08:27:12;;;;;;;13.88;12.90;;;;;;;25.02;48.49;100164.69;4947590;28;97088;-81
2022/06/06 08:29:39;;;;;;;14.10;13.10;;;;;;;24.93;48.15;100153.00;4937189;28;97303;-83
2022/06/06 08:32:05;;;;;;;13.93;12.85;;;;;;;25.12;48.45;100181.56;4952867;28;98020;-82
2022/06/06 08:34:33;;;;;;;13.45;12.65;;;;;;;25.17;48.05;100182.00;4934847;28;97602;-85
2022/06/06 08:37:08;;;;;;;14.05;12.85;;;;;;;25.30;47.66;100178.97;4926720;28;97221;-85
2022/06/06 08:39:52;;;;;;;14.70;13.30;;;;;;;25.30;48.24;100174.44;4947801;28;97256;-86
2022/06/06 08:42:59;;;;;;;13.95;12.95;;;;;;;25.57;47.40;100180.78;4949803;28;98246;-86
2022/06/06 08:45:43;;;;;;;14.88;13.57;;;;;;;25.80;47.28;100181.16;4867806;28;101323;-88
2022/06/06 08:48:45;;;;;;;15.13;13.73;;;;;;;25.66;47.72;100181.72;4872079;28;97182;-83
2022/06/06 08:51:26;;;;;;;14.85;13.60;;;;;;;25.57;47.81;100193.34;4967378;28;97065;-84
2022/06/06 08:54:00;;;;;;;14.23;12.80;;;;;;;25.63;48.00;100187.41;4954315;28;101560;-82
2022/06/06 08:56:50;;;;;;;13.55;12.63;;;;;;;25.49;47.92;100189.59;4952164;28;101296;-85
2022/06/06 09:00:01;;;;;;;12.90;12.00;;;;;;;25.40;48.79;100190.50;4954149;28;96843;-84
2022/06/06 09:03:04;;;;;;;13.15;12.23;;;;;;;25.27;49.16;100193.53;4887041;28;97096;-82
2022/06/06 09:05:57;;;;;;;13.02;12.00;;;;;;;25.17;49.30;100191.91;4959088;28;97806;-83
2022/06/06 09:08:42;;;;;;;12.43;11.52;;;;;;;25.02;49.85;100199.59;4936110;28;100362;-81
2022/06/06 09:11:33;;;;;;;11.77;10.98;;;;;;;24.93;50.28;100205.81;4957196;28;98252;-82
2022/06/06 09:14:08;;;;;;;13.55;12.60;;;;;;;24.79;50.68;100212.53;4954822;28;97456;-86
2022/06/06 09:17:08;;;;;;;14.05;12.18;;;;;;;24.71;50.93;100207.88;4946078;28;101376;-81
2022/06/06 09:20:05;;;;;;;12.07;11.27;;;;;;;24.56;51.15;100183.38;4942517;28;101236;-81
2022/06/06 09:22:55;;;;;;;20.25;11.98;;;;;;;24.61;51.38;100217.81;4948633;28;98161;-82
2022/06/06 09:25:23;;;;;;;12.10;11.10;;;;;;;24.50;51.98;100210.78;4941421;28;97049;-82
2022/06/06 09:28:22;;;;;;;12.90;11.77;;;;;;;24.40;51.98;100208.09;4950932;28;98042;-81
2022/06/06 09:31:41;;;;;;;13.38;12.27;;;;;;;24.27;52.22;100220.94;4931213;28;100937;-82
2022/06/06 09:34:44;;;;;;;13.70;12.70;;;;;;;24.07;53.06;100221.94;4891092;28;97306;-81
2022/06/06 09:37:33;;;;;;;12.98;12.18;;;;;;;24.04;53.35;100223.06;4971518;28;96792;-82
2022/06/06 09:40:43;;;;;;;12.50;11.75;;;;;;;23.98;53.74;100226.31;4926988;28;101733;-82
2022/06/06 09:43:28;;;;;;;12.95;12.02;;;;;;;23.99;53.30;100217.28;4954409;28;97960;-82
2022/06/06 09:46:33;;;;;;;13.15;11.90;;;;;;;24.04;53.80;100216.88;4928421;28;97040;-82
2022/06/06 09:49:11;;;;;;;14.27;12.43;;;;;;;24.07;53.53;100200.50;4958895;28;97554;-82
2022/06/06 09:52:10;;;;;;;12.95;12.05;;;;;;;24.13;53.76;100197.25;4950728;28;96884;-81
2022/06/06 10:01:03;;;;;;;13.38;12.38;;;;;;;24.72;53.24;100198.00;4953402;28;97361;-82
2022/06/06 10:03:55;;;;;;;14.43;13.13;;;;;;;24.97;53.47;100199.19;4944914;28;101083;-81
2022/06/06 10:06:33;;;;;;;13.93;12.38;;;;;;;25.27;52.44;100204.28;4914542;28;100370;-81
2022/06/06 10:09:10;;;;;;;17.33;15.70;;;;;;;25.49;53.03;100200.34;4968213;28;97091;-80
2022/06/06 10:11:46;;;;;;;14.38;13.18;;;;;;;25.69;52.58;100194.84;4954394;28;98201;-82
2022/06/06 10:14:27;;;;;;;12.52;11.63;;;;;;;25.83;52.21;100193.47;4968573;28;97470;-81
2022/06/06 10:17:06;;;;;;;15.43;14.18;;;;;;;26.01;52.03;100196.19;4948871;28;97846;-82
2022/06/06 10:19:39;;;;;;;14.35;13.20;;;;;;;26.22;51.65;100196.69;4936014;28;96770;-82
2022/06/06 10:22:16;;;;;;;13.60;12.50;;;;;;;26.15;51.39;100209.03;4939977;28;97287;-85
2022/06/06 10:24:50;;;;;;;14.30;13.30;;;;;;;26.03;51.28;100199.53;4932415;28;97750;-81
2022/06/06 10:27:41;;;;;;;13.90;12.80;;;;;;;26.00;50.88;100214.13;4951263;28;101747;-82
2022/06/06 10:30:11;;;;;;;14.93;13.43;;;;;;;26.08;51.15;100218.75;4979960;28;96633;-82
2022/06/06 10:32:40;;;;;;;13.25;11.95;;;;;;;26.24;50.61;100209.94;4919804;28;97678;-83
2022/06/06 10:35:36;;;;;;;13.57;12.50;;;;;;;26.10;50.88;100206.84;4949121;28;101640;-80
2022/06/06 10:38:26;;;;;;;18.10;13.43;;;;;;;25.79;52.00;100216.25;4921745;28;101442;-82
2022/06/06 10:41:34;;;;;;;13.07;11.75;;;;;;;25.59;52.41;100221.75;4956524;28;97024;-84
2022/06/06 10:44:05;;;;;;;12.27;11.38;;;;;;;25.43;52.23;100218.91;4926742;28;97861;-81
2022/06/06 10:46:46;;;;;;;12.13;11.13;;;;;;;25.26;52.65;100221.41;4947164;28;97855;-82
2022/06/06 10:49:29;;;;;;;12.07;10.88;;;;;;;25.30;52.17;100217.41;4951407;28;100495;-83
2022/06/06 10:52:05;;;;;;;12.75;11.43;;;;;;;25.33;52.50;100226.16;4931925;28;97529;-82
2022/06/06 10:54:33;;;;;;;10.93;10.23;;;;;;;25.20;51.84;100221.16;4961642;28;97148;-82
2022/06/06 10:57:17;;;;;;;11.60;10.80;;;;;;;25.06;52.30;100219.75;4941328;28;100862;-82
2022/06/06 11:00:04;;;;;;;11.13;10.23;;;;;;;24.82;52.55;100220.28;4952748;28;100633;-84
2022/06/06 11:02:50;;;;;;;11.63;10.75;;;;;;;24.74;52.53;100179.91;4953476;28;97261;-82
2022/06/06 11:05:19;;;;;;;12.32;11.32;;;;;;;25.10;52.38;100225.69;4953800;28;97420;-82
2022/06/06 11:08:04;;;;;;;12.27;11.35;;;;;;;25.13;52.21;100228.91;4938040;28;101303;-83
2022/06/06 11:10:39;;;;;;;11.48;10.68;;;;;;;25.14;51.82;100227.13;4938409;28;101409;-83
2022/06/06 11:13:20;;;;;;;11.27;10.48;;;;;;;25.27;51.38;100231.13;4942489;28;96759;-81
2022/06/06 11:16:12;;;;;;;10.70;10.00;;;;;;;25.19;51.46;100219.44;4920110;28;96867;-84
2022/06/06 11:18:38;;;;;;;12.60;11.50;;;;;;;25.13;51.92;100218.16;4952417;28;98050;-82
2022/06/06 11:21:39;;;;;;;12.52;11.32;;;;;;;25.10;51.89;100218.47;4954129;28;101000;-81
2022/06/06 11:24:39;;;;;;;11.75;10.75;;;;;;;25.02;51.90;100237.19;4948633;28;97283;-81
2022/06/06 11:27:43;;;;;;;11.30;10.30;;;;;;;24.93;51.75;100233.53;4928551;28;97516;-84
2022/06/06 11:30:33;;;;;;;12.85;11.77;;;;;;;25.06;51.64;100235.88;4926847;28;101734;-83
2022/06/06 11:33:29;;;;;;;13.85;12.43;;;;;;;24.98;51.86;100233.91;4951878;28;97857;-81
2022/06/06 11:36:13;;;;;;;10.80;10.10;;;;;;;24.97;51.66;100248.34;4968394;28;97817;-81
2022/06/06 11:38:51;;;;;;;11.68;10.52;;;;;;;24.91;52.18;100240.88;4955581;28;98587;-84
2022/06/06 11:41:41;;;;;;;11.55;10.68;;;;;;;24.87;52.10;100235.94;4967414;28;97159;-81
2022/06/06 11:44:07;;;;;;;10.10;9.50;;;;;;;24.82;52.14;100231.03;4945946;28;101644;-86
2022/06/06 11:47:04;;;;;;;10.55;9.77;;;;;;;24.85;51.89;100228.06;4959962;28;97067;-84
2022/06/06 11:49:49;;;;;;;11.07;10.20;;;;;;;24.93;52.26;100225.47;4959442;28;96919;-86
2022/06/06 11:52:45;;;;;;;10.55;9.90;;;;;;;24.87;52.55;100234.13;4941886;28;100934;-89
2022/06/06 11:55:26;;;;;;;10.13;9.55;;;;;;;24.87;52.56;100234.13;4960556;28;101137;-82
2022/06/06 11:58:06;;;;;;;10.65;9.98;;;;;;;24.77;52.50;100211.81;4946236;28;97588;-82
2022/06/06 12:00:43;;;;;;;10.93;10.20;;;;;;;24.86;52.81;100229.72;4972383;28;98452;-82
2022/06/06 12:03:33;;;;;;;17.65;13.00;;;;;;;24.69;52.81;100238.53;4970062;28;98143;-82
2022/06/06 12:06:35;;;;;;;8.95;8.32;;;;;;;24.61;52.96;100232.06;4970094;28;97317;-82
2022/06/06 12:09:13;;;;;;;8.23;7.72;;;;;;;24.61;52.99;100242.81;4944227;28;97907;-82
2022/06/06 12:11:54;;;;;;;10.00;9.50;;;;;;;24.46;53.37;100238.84;4933224;28;97022;-82
2022/06/06 12:14:43;;;;;;;10.57;9.77;;;;;;;24.44;53.45;100238.19;4971741;28;98028;-82
2022/06/06 12:17:47;;;;;;;11.50;10.48;;;;;;;24.22;54.12;100230.41;4945658;28;101445;-82
2022/06/06 12:20:33;;;;;;;11.40;10.60;;;;;;;24.19;53.98;100223.47;4937389;28;97527;-81